Time;durP1;ratioP1;P1;durP2;ratioP2;P2;SDS_P1;SDS_P2;PMS_P1;PMS_P2;Temp;Humidity;BMP_temperature;BMP_pressure;BME280_temperature;BME280_humidity;BME280_pressure;Samples;Min_cycle;Max_cycle;Signal;HPM_P1;HPM_P2
2021/11/18 00:03:39;;;;;;;6.80;6.20;;;9.10;47.10;;;;;;10439100;28;20216;-69
2021/11/18 00:08:44;;;;;;;7.17;6.47;;;9.10;47.00;;;;;;10435613;28;20232;-69
2021/11/18 00:13:50;;;;;;;7.57;6.87;;;9.20;47.00;;;;;;10436594;28;20229;-69
2021/11/18 00:18:53;;;;;;;7.23;6.63;;;9.20;47.00;;;;;;10439090;28;20231;-69
2021/11/18 00:23:59;;;;;;;7.80;7.10;;;9.10;46.90;;;;;;10435319;28;20235;-69
2021/11/18 00:29:05;;;;;;;8.13;7.33;;;9.10;47.00;;;;;;10435424;28;20228;-69
2021/11/18 00:34:08;;;;;;;8.97;8.10;;;9.10;47.00;;;;;;10431315;28;20231;-69
2021/11/18 00:39:14;;;;;;;8.47;7.67;;;9.00;47.40;;;;;;10441117;28;20239;-70
2021/11/18 00:44:17;;;;;;;8.43;7.63;;;9.00;47.30;;;;;;10436814;28;20315;-69
2021/11/18 00:49:21;;;;;;;8.27;7.57;;;8.90;47.20;;;;;;10440277;28;20229;-70
2021/11/18 00:54:26;;;;;;;8.37;7.67;;;8.90;47.30;;;;;;10430593;28;20221;-69
2021/11/18 00:59:30;;;;;;;8.17;7.47;;;8.90;47.40;;;;;;10434571;28;20246;-70
2021/11/18 01:04:33;;;;;;;8.47;7.67;;;8.90;47.40;;;;;;10438487;28;20220;-70
2021/11/18 01:09:39;;;;;;;8.73;7.83;;;8.90;47.40;;;;;;10458895;28;21285;-70
2021/11/18 01:14:43;;;;;;;8.70;7.83;;;8.90;47.50;;;;;;10447290;28;20217;-69
2021/11/18 01:19:46;;;;;;;8.70;8.00;;;8.90;47.40;;;;;;10452484;28;20224;-69
2021/11/18 01:24:51;;;;;;;8.50;7.70;;;8.90;47.40;;;;;;10446756;28;20224;-69
2021/11/18 01:29:54;;;;;;;8.73;7.83;;;8.90;47.50;;;;;;10451056;28;20224;-69
2021/11/18 01:35:00;;;;;;;8.30;7.57;;;8.90;47.50;;;;;;10456793;28;20738;-69
2021/11/18 01:40:06;;;;;;;9.07;8.27;;;8.90;47.60;;;;;;10447934;28;20307;-69
2021/11/18 01:45:11;;;;;;;8.23;7.53;;;9.00;47.70;;;;;;10451086;28;20235;-69
2021/11/18 01:50:17;;;;;;;8.87;8.07;;;9.00;47.60;;;;;;10458082;28;20229;-71
2021/11/18 01:55:22;;;;;;;8.50;7.80;;;9.00;47.60;;;;;;10455125;28;20225;-70
2021/11/18 02:00:29;;;;;;;8.20;7.40;;;9.10;47.60;;;;;;10451007;28;20232;-70
2021/11/18 02:05:35;;;;;;;8.50;7.70;;;9.10;47.60;;;;;;10454730;28;20366;-70
2021/11/18 02:10:43;;;;;;;9.00;8.20;;;9.10;47.50;;;;;;10455369;28;20228;-70
2021/11/18 02:15:49;;;;;;;7.93;7.10;;;9.20;48.20;;;;;;10447967;28;20221;-70
2021/11/18 02:20:54;;;;;;;8.90;8.10;;;9.20;47.50;;;;;;10443384;28;20709;-70
2021/11/18 02:25:59;;;;;;;8.93;8.13;;;9.20;47.40;;;;;;10445335;28;20716;-70
2021/11/18 02:31:13;;;;;;;9.30;8.40;;;9.20;47.30;;;;;;10439751;28;20225;-70
2021/11/18 02:36:17;;;;;;;10.43;8.97;;;9.20;47.60;;;;;;10444208;28;20221;-70
2021/11/18 02:41:22;;;;;;;10.37;9.37;;;9.30;47.50;;;;;;10443104;28;20225;-70
2021/11/18 02:46:26;;;;;;;11.00;9.90;;;9.30;47.40;;;;;;10440842;28;20233;-70
2021/11/18 02:51:31;;;;;;;13.77;12.37;;;9.30;47.40;;;;;;10440916;28;20233;-70
2021/11/18 02:56:34;;;;;;;9.37;8.47;;;9.30;47.20;;;;;;10446062;28;20260;-70
2021/11/18 03:01:40;;;;;;;9.50;8.60;;;9.30;47.20;;;;;;10444638;28;20251;-70
2021/11/18 03:06:45;;;;;;;9.10;8.23;;;9.30;47.20;;;;;;10445522;28;20246;-70
2021/11/18 03:11:48;;;;;;;8.20;7.50;;;9.30;47.30;;;;;;10444137;28;20701;-70
2021/11/18 03:16:53;;;;;;;8.13;7.33;;;9.30;47.20;;;;;;10437946;28;20270;-70
2021/11/18 03:21:57;;;;;;;8.50;7.63;;;9.40;47.30;;;;;;10444657;28;20599;-70
2021/11/18 03:27:00;;;;;;;8.17;7.37;;;9.40;47.10;;;;;;10444409;28;20229;-69
2021/11/18 03:32:04;;;;;;;8.33;7.60;;;9.50;47.20;;;;;;10495912;22;20275;-73
2021/11/18 03:37:09;;;;;;;8.40;7.63;;;9.50;47.20;;;;;;10461696;28;20228;-73
2021/11/18 03:42:13;;;;;;;8.87;8.07;;;9.50;47.10;;;;;;10461407;28;20233;-73
2021/11/18 03:47:17;;;;;;;9.07;8.17;;;9.60;47.00;;;;;;10461874;28;20599;-73
2021/11/18 03:52:22;;;;;;;8.33;7.53;;;9.60;47.00;;;;;;10464513;28;20788;-73
2021/11/18 03:57:26;;;;;;;8.03;7.30;;;9.60;47.70;;;;;;10465647;28;20606;-73
2021/11/18 04:02:29;;;;;;;8.70;7.90;;;9.50;46.90;;;;;;10456469;28;20248;-73
2021/11/18 04:07:39;;;;;;;8.60;7.47;;;9.50;46.80;;;;;;10461139;28;20216;-73
2021/11/18 04:12:43;;;;;;;8.30;7.50;;;9.50;46.90;;;;;;10458627;28;20230;-73
2021/11/18 04:17:46;;;;;;;9.20;8.17;;;9.50;47.00;;;;;;10459452;28;20248;-73
2021/11/18 04:22:53;;;;;;;8.80;8.00;;;9.50;47.00;;;;;;10461360;28;20269;-73
2021/11/18 04:27:57;;;;;;;8.03;7.23;;;9.50;47.20;;;;;;10459140;28;20268;-73
2021/11/18 04:33:00;;;;;;;9.13;8.23;;;9.40;47.00;;;;;;10456005;28;20224;-73
2021/11/18 04:38:05;;;;;;;8.43;7.57;;;9.40;47.00;;;;;;10457532;28;20303;-72
2021/11/18 04:43:09;;;;;;;7.87;7.10;;;9.40;47.20;;;;;;10450473;28;20263;-73
2021/11/18 04:48:12;;;;;;;8.30;7.50;;;9.40;47.30;;;;;;10457157;28;20228;-73
2021/11/18 04:53:17;;;;;;;8.23;7.53;;;9.40;47.30;;;;;;10461061;28;20279;-72
2021/11/18 04:58:21;;;;;;;10.00;8.23;;;9.40;47.30;;;;;;10459945;28;20216;-72
2021/11/18 05:03:26;;;;;;;8.47;7.67;;;9.50;47.30;;;;;;10456572;28;20283;-73
2021/11/18 05:08:31;;;;;;;8.17;7.40;;;9.50;47.30;;;;;;10455690;28;20224;-74
2021/11/18 05:13:34;;;;;;;8.90;8.10;;;9.50;47.30;;;;;;10452199;28;20720;-74
2021/11/18 05:18:39;;;;;;;9.40;8.50;;;9.40;46.90;;;;;;10459604;28;20226;-73
2021/11/18 05:23:43;;;;;;;9.00;8.20;;;9.50;47.20;;;;;;10456326;28;20230;-73
2021/11/18 05:28:47;;;;;;;9.77;8.77;;;9.40;47.10;;;;;;10459955;28;20221;-70
2021/11/18 05:33:51;;;;;;;9.57;8.73;;;9.50;47.30;;;;;;10451306;28;20225;-70
2021/11/18 05:38:56;;;;;;;9.27;8.37;;;9.50;47.30;;;;;;10461373;28;20217;-69
2021/11/18 05:44:02;;;;;;;10.73;9.67;;;9.50;47.50;;;;;;10459970;28;20254;-70
2021/11/18 05:49:07;;;;;;;10.77;9.67;;;9.50;47.30;;;;;;10452986;28;20228;-69
2021/11/18 05:54:13;;;;;;;11.17;10.07;;;9.50;47.30;;;;;;10457953;28;20225;-69
2021/11/18 05:59:16;;;;;;;11.13;10.03;;;9.50;47.50;;;;;;10466690;28;20228;-69
2021/11/18 06:04:19;;;;;;;9.80;8.90;;;9.50;47.50;;;;;;10465269;28;20228;-69
2021/11/18 06:09:24;;;;;;;10.73;9.63;;;9.50;47.60;;;;;;10460367;28;20232;-71
2021/11/18 06:14:27;;;;;;;9.23;8.37;;;9.50;47.50;;;;;;10462009;28;20235;-70
2021/11/18 06:19:30;;;;;;;11.53;10.23;;;9.50;48.40;;;;;;10460078;28;20255;-70
2021/11/18 06:24:35;;;;;;;12.00;10.87;;;9.60;47.70;;;;;;10461678;28;20220;-70
2021/11/18 06:29:39;;;;;;;11.00;9.90;;;9.60;47.70;;;;;;10458228;28;20224;-71
2021/11/18 06:34:42;;;;;;;12.30;11.00;;;9.50;47.60;;;;;;10462411;28;20239;-71
2021/11/18 06:39:47;;;;;;;10.80;9.80;;;9.60;47.70;;;;;;10460456;28;20239;-70
2021/11/18 06:44:50;;;;;;;10.53;9.53;;;9.50;47.70;;;;;;10464039;28;20263;-70
2021/11/18 06:49:54;;;;;;;10.77;9.67;;;9.50;47.70;;;;;;10466852;28;20230;-69
2021/11/18 06:54:58;;;;;;;11.67;10.50;;;9.50;47.60;;;;;;10466605;28;20220;-70
2021/11/18 07:00:02;;;;;;;12.60;11.40;;;9.50;47.70;;;;;;10447121;28;20734;-69
2021/11/18 07:05:06;;;;;;;12.13;10.93;;;9.50;47.70;;;;;;10451738;28;20224;-70
2021/11/18 07:10:12;;;;;;;13.00;11.70;;;9.50;47.80;;;;;;10451550;28;21492;-70
2021/11/18 07:15:15;;;;;;;15.03;11.43;;;9.60;48.70;;;;;;10445175;28;20232;-70
2021/11/18 07:20:18;;;;;;;14.23;12.83;;;9.60;47.80;;;;;;10447168;28;20231;-70
2021/11/18 07:25:25;;;;;;;12.20;10.50;;;9.60;47.80;;;;;;10449456;28;20232;-69
2021/11/18 07:30:29;;;;;;;12.17;11.03;;;9.60;48.00;;;;;;10447866;28;20232;-70
2021/11/18 07:35:33;;;;;;;13.37;11.10;;;9.60;48.00;;;;;;10447502;28;20224;-70
2021/11/18 07:40:38;;;;;;;12.00;10.80;;;9.60;47.90;;;;;;10457158;28;20232;-70
2021/11/18 07:45:41;;;;;;;11.63;10.43;;;9.70;48.00;;;;;;10457426;28;20220;-71
2021/11/18 07:50:46;;;;;;;11.10;10.00;;;9.60;48.00;;;;;;10459975;28;20229;-70
2021/11/18 07:55:50;;;;;;;13.73;12.30;;;9.70;48.00;;;;;;10461703;28;20234;-70
2021/11/18 08:00:54;;;;;;;14.70;12.43;;;9.70;48.30;;;;;;10457064;28;20231;-70
2021/11/18 08:05:57;;;;;;;13.83;12.23;;;9.70;48.20;;;;;;10459204;28;20233;-70
2021/11/18 08:11:02;;;;;;;13.27;11.93;;;9.70;48.20;;;;;;10455584;28;20235;-69
2021/11/18 08:16:06;;;;;;;12.67;11.40;;;9.70;48.30;;;;;;10452912;28;20693;-73
2021/11/18 08:21:10;;;;;;;12.63;11.30;;;9.80;48.20;;;;;;10462659;28;20304;-73
2021/11/18 08:26:17;;;;;;;13.90;12.10;;;9.70;48.20;;;;;;10453604;28;20481;-73
2021/11/18 08:31:21;;;;;;;13.97;12.50;;;9.80;48.60;;;;;;10454039;28;20232;-73
2021/11/18 08:36:25;;;;;;;16.07;13.10;;;9.80;48.50;;;;;;10446485;28;20225;-73
2021/11/18 08:41:29;;;;;;;14.80;12.70;;;9.90;48.40;;;;;;10448264;28;20240;-73
2021/11/18 08:46:33;;;;;;;13.20;11.80;;;9.90;48.30;;;;;;10449442;28;20235;-71
2021/11/18 08:51:36;;;;;;;12.83;11.43;;;9.90;48.30;;;;;;10446666;28;20227;-70
2021/11/18 08:56:42;;;;;;;14.10;12.63;;;10.00;47.50;;;;;;10446696;28;20534;-71
2021/11/18 09:01:48;;;;;;;12.93;11.63;;;10.00;47.50;;;;;;10444107;28;20226;-69
2021/11/18 09:06:52;;;;;;;14.00;12.50;;;10.10;47.50;;;;;;10447390;28;20228;-71
2021/11/18 09:12:00;;;;;;;13.20;11.90;;;10.10;47.30;;;;;;10453193;28;20246;-70
2021/11/18 09:17:05;;;;;;;14.13;12.63;;;10.10;47.40;;;;;;10455967;28;20229;-71
2021/11/18 09:22:10;;;;;;;15.63;12.17;;;10.10;47.40;;;;;;10455066;28;20228;-71
2021/11/18 09:27:30;;;;;;;14.40;12.03;;;10.20;47.60;;;;;;10456191;28;20234;-70
2021/11/18 09:32:33;;;;;;;14.07;12.57;;;10.20;47.50;;;;;;10465305;28;20250;-70
2021/11/18 09:37:37;;;;;;;14.27;12.77;;;10.30;47.30;;;;;;10465010;28;20224;-70
2021/11/18 09:42:56;;;;;;;12.93;11.60;;;10.30;47.10;;;;;;10461593;28;20229;-70
2021/11/18 09:48:29;;;;;;;13.87;12.50;;;10.40;47.30;;;;;;10467268;28;20224;-70
2021/11/18 09:53:47;;;;;;;14.10;12.63;;;10.40;47.50;;;;;;10462072;28;20227;-70
2021/11/18 09:59:17;;;;;;;14.73;13.23;;;10.40;47.40;;;;;;10462691;28;20612;-70
2021/11/18 10:04:29;;;;;;;14.67;13.17;;;10.40;47.50;;;;;;10458348;28;20220;-70
2021/11/18 10:09:47;;;;;;;13.00;11.80;;;10.40;47.50;;;;;;10463361;28;20597;-70
2021/11/18 10:14:56;;;;;;;13.53;12.17;;;10.50;47.70;;;;;;10458451;28;20470;-70
2021/11/18 10:20:02;;;;;;;15.17;13.57;;;10.50;47.50;;;;;;10465557;28;20244;-70
2021/11/18 10:25:10;;;;;;;15.03;13.53;;;10.60;47.50;;;;;;10459833;28;20646;-70
2021/11/18 10:30:20;;;;;;;15.33;13.73;;;10.60;47.30;;;;;;10462696;28;20311;-71
2021/11/18 10:35:38;;;;;;;16.30;13.40;;;10.70;47.50;;;;;;10457625;28;20243;-69
2021/11/18 10:40:53;;;;;;;14.10;12.67;;;10.80;47.30;;;;;;10449200;28;20221;-69
2021/11/18 10:46:11;;;;;;;13.03;11.73;;;10.80;47.30;;;;;;10453434;28;20272;-69
2021/11/18 10:51:22;;;;;;;13.40;12.00;;;10.90;47.20;;;;;;10452219;28;20687;-69
2021/11/18 10:56:32;;;;;;;13.60;12.30;;;10.90;47.20;;;;;;10450028;28;20734;-69
2021/11/18 11:01:39;;;;;;;13.40;12.10;;;10.90;47.10;;;;;;10452087;28;20235;-69
2021/11/18 11:06:53;;;;;;;13.73;12.33;;;11.00;47.40;;;;;;10452714;28;20543;-68
2021/11/18 11:12:05;;;;;;;13.50;11.97;;;11.00;47.20;;;;;;10453201;28;20436;-69
2021/11/18 11:17:32;;;;;;;14.37;12.97;;;11.10;47.20;;;;;;10447422;28;20217;-69
2021/11/18 11:22:43;;;;;;;14.13;12.63;;;11.10;47.00;;;;;;10448986;28;20229;-69
2021/11/18 11:28:28;;;;;;;14.73;13.10;;;11.10;47.80;;;;;;10452004;28;20228;-69
2021/11/18 11:33:40;;;;;;;13.83;12.40;;;11.20;47.40;;;;;;10443007;28;20231;-69
2021/11/18 11:38:53;;;;;;;13.20;11.70;;;11.20;46.90;;;;;;10448402;28;20221;-69
2021/11/18 11:44:04;;;;;;;12.60;11.30;;;11.20;46.90;;;;;;10454679;28;20244;-71
2021/11/18 11:49:42;;;;;;;11.90;10.80;;;11.20;46.70;;;;;;10460771;28;20593;-70
2021/11/18 11:55:09;;;;;;;12.80;11.50;;;11.30;47.00;;;;;;10457659;28;20232;-69
2021/11/18 12:00:17;;;;;;;12.20;10.97;;;11.30;46.80;;;;;;10458482;28;20246;-69
2021/11/18 12:05:25;;;;;;;13.03;11.70;;;11.30;46.70;;;;;;10454192;28;20232;-69
2021/11/18 12:10:33;;;;;;;11.03;10.03;;;11.30;47.00;;;;;;10455215;28;20262;-70
2021/11/18 12:15:46;;;;;;;11.73;10.17;;;11.40;46.90;;;;;;10457691;28;20228;-70
2021/11/18 12:20:51;;;;;;;11.17;10.07;;;11.40;46.70;;;;;;10457131;28;20232;-70
2021/11/18 12:26:14;;;;;;;10.60;9.60;;;11.40;46.50;;;;;;10454284;28;20228;-69
2021/11/18 12:31:24;;;;;;;10.17;9.20;;;11.50;46.30;;;;;;10460544;28;20688;-70
2021/11/18 12:37:04;;;;;;;10.13;9.17;;;11.50;46.40;;;;;;10456227;28;20216;-69
2021/11/18 12:42:43;;;;;;;10.93;9.80;;;11.50;46.40;;;;;;10454342;28;20227;-69
2021/11/18 12:48:13;;;;;;;10.80;9.80;;;11.50;46.50;;;;;;10386869;28;20312;-70
2021/11/18 12:53:39;;;;;;;10.73;9.67;;;11.50;47.00;;;;;;10454601;28;20696;-69
2021/11/18 12:58:49;;;;;;;11.90;10.70;;;11.50;46.10;;;;;;10441865;28;20734;-69
2021/11/18 13:04:01;;;;;;;12.30;11.10;;;11.50;46.50;;;;;;10438787;28;20275;-69
2021/11/18 13:09:07;;;;;;;12.33;11.03;;;11.50;46.40;;;;;;10440487;28;20603;-70
2021/11/18 13:14:20;;;;;;;12.20;10.93;;;11.50;46.60;;;;;;10439585;28;20233;-70
2021/11/18 13:19:30;;;;;;;19.17;17.23;;;11.60;46.60;;;;;;10436823;28;20767;-69
2021/11/18 13:24:47;;;;;;;10.60;9.70;;;11.60;46.40;;;;;;10442479;28;20228;-69
2021/11/18 13:29:54;;;;;;;10.00;9.00;;;11.60;45.90;;;;;;10443714;28;20228;-70
2021/11/18 13:35:01;;;;;;;8.43;7.63;;;11.60;46.00;;;;;;10451678;28;20235;-69
2021/11/18 13:40:18;;;;;;;8.43;7.73;;;11.60;46.00;;;;;;10451786;28;20213;-70
2021/11/18 13:45:26;;;;;;;8.33;7.63;;;11.60;45.60;;;;;;10454241;28;20231;-70
2021/11/18 13:50:33;;;;;;;7.63;7.00;;;11.60;46.00;;;;;;10458887;28;20608;-70
2021/11/18 13:55:48;;;;;;;7.97;7.27;;;11.50;45.80;;;;;;10451690;28;20265;-69
2021/11/18 14:00:54;;;;;;;8.20;7.40;;;11.50;45.00;;;;;;10456335;28;20229;-70
2021/11/18 14:06:01;;;;;;;7.77;7.17;;;11.50;45.30;;;;;;10454974;28;20224;-70
2021/11/18 14:11:09;;;;;;;7.63;7.03;;;11.50;45.30;;;;;;10445955;28;20597;-70
2021/11/18 14:16:40;;;;;;;8.10;6.33;;;11.60;45.40;;;;;;10413868;28;20689;-69
2021/11/18 14:22:06;;;;;;;7.43;6.83;;;11.60;45.60;;;;;;10460143;28;20431;-70
2021/11/18 14:27:14;;;;;;;6.87;6.27;;;11.60;45.50;;;;;;10464538;28;20220;-70
2021/11/18 14:32:31;;;;;;;6.43;5.87;;;11.60;45.30;;;;;;10468392;28;20228;-70
2021/11/18 14:37:40;;;;;;;6.97;6.37;;;11.50;45.10;;;;;;10464264;28;20220;-70
2021/11/18 14:42:55;;;;;;;6.40;5.80;;;11.50;45.30;;;;;;10462627;28;20224;-69
2021/11/18 14:48:20;;;;;;;6.80;6.20;;;11.50;45.10;;;;;;10458836;28;20232;-70
2021/11/18 14:53:38;;;;;;;6.30;5.80;;;11.50;45.30;;;;;;10460291;28;20269;-70
2021/11/18 14:58:42;;;;;;;6.30;5.80;;;11.50;45.60;;;;;;10452910;28;20229;-69
2021/11/18 15:03:51;;;;;;;5.87;5.43;;;11.50;45.40;;;;;;10458386;28;20217;-69
2021/11/18 15:08:56;;;;;;;6.23;5.63;;;11.50;45.30;;;;;;10463444;28;20326;-69
2021/11/18 15:14:01;;;;;;;5.93;5.43;;;11.40;45.60;;;;;;10459246;28;20224;-69
2021/11/18 15:19:06;;;;;;;5.60;5.10;;;11.40;45.30;;;;;;10458921;28;20227;-70
2021/11/18 15:24:12;;;;;;;5.23;4.80;;;11.40;45.30;;;;;;10458878;28;20255;-69
2021/11/18 15:29:18;;;;;;;6.10;5.60;;;11.40;45.20;;;;;;10461801;28;20254;-69
2021/11/18 15:39:31;;;;;;;5.63;5.07;;;11.40;45.00;;;;;;10381235;28;20218;-71
2021/11/18 15:44:36;;;;;;;5.47;4.97;;;11.40;45.00;;;;;;10348504;28;20222;-73
2021/11/18 15:49:41;;;;;;;5.40;4.90;;;11.40;44.50;;;;;;10344501;28;20915;-73
2021/11/18 15:54:45;;;;;;;5.13;4.73;;;11.40;44.90;;;;;;10343600;28;20234;-72
2021/11/18 15:59:50;;;;;;;4.70;4.30;;;11.30;44.80;;;;;;10345498;28;20247;-72
2021/11/18 16:04:53;;;;;;;5.30;4.90;;;11.30;44.50;;;;;;10358143;28;20234;-72
2021/11/18 16:09:57;;;;;;;6.27;5.70;;;11.30;44.80;;;;;;10351972;28;20227;-72
2021/11/18 16:15:08;;;;;;;5.73;5.27;;;11.30;44.50;;;;;;10350799;28;20230;-72
2021/11/18 16:20:15;;;;;;;5.33;4.83;;;11.30;44.20;;;;;;10349141;28;20218;-72
2021/11/18 16:25:21;;;;;;;5.83;5.30;;;11.30;44.20;;;;;;10342105;28;20226;-75
2021/11/18 16:30:30;;;;;;;5.80;5.30;;;11.40;44.30;;;;;;10334662;28;20245;-74
2021/11/18 16:35:34;;;;;;;5.53;5.03;;;11.30;44.10;;;;;;10338516;28;20242;-74
2021/11/18 16:40:39;;;;;;;11.53;9.30;;;11.40;44.50;;;;;;10339922;28;20585;-74
2021/11/18 16:45:46;;;;;;;5.50;5.00;;;11.40;44.20;;;;;;10337924;28;20309;-72
2021/11/18 16:50:54;;;;;;;5.47;5.07;;;11.30;44.00;;;;;;10339437;28;20740;-72
2021/11/18 16:55:58;;;;;;;4.83;4.43;;;11.30;44.20;;;;;;10339241;28;20596;-71
2021/11/18 17:01:07;;;;;;;5.50;5.00;;;11.20;44.50;;;;;;10340888;28;20671;-69
2021/11/18 17:06:11;;;;;;;5.00;4.50;;;11.20;44.00;;;;;;10356624;28;20223;-69
2021/11/18 17:11:17;;;;;;;4.67;4.30;;;11.20;44.50;;;;;;10358982;28;20616;-69
2021/11/18 17:16:22;;;;;;;6.73;5.13;;;11.20;44.30;;;;;;10346845;28;20230;-69
2021/11/18 17:21:29;;;;;;;6.30;5.73;;;11.20;44.40;;;;;;10334963;28;20241;-69
2021/11/18 17:26:34;;;;;;;6.43;5.83;;;11.20;44.40;;;;;;10338206;28;20701;-72
2021/11/18 17:31:40;;;;;;;6.00;5.50;;;11.20;44.40;;;;;;10339616;28;20604;-72
2021/11/18 17:36:44;;;;;;;8.17;7.47;;;11.20;44.20;;;;;;10337706;28;20722;-72
2021/11/18 17:41:51;;;;;;;9.33;8.57;;;11.20;44.30;;;;;;10332159;28;20734;-74
2021/11/18 17:46:58;;;;;;;10.27;9.47;;;11.20;44.20;;;;;;10337032;28;20245;-74
2021/11/18 17:52:06;;;;;;;9.00;8.20;;;11.10;44.00;;;;;;10353349;28;20234;-73
2021/11/18 17:57:13;;;;;;;9.93;9.13;;;11.00;43.90;;;;;;10356593;28;20229;-74
2021/11/18 18:02:26;;;;;;;9.00;8.20;;;10.90;44.10;;;;;;10347085;28;20230;-74
2021/11/18 18:07:30;;;;;;;6.87;6.27;;;10.90;44.20;;;;;;10346783;28;20219;-74
2021/11/18 18:12:33;;;;;;;6.70;6.10;;;10.80;44.30;;;;;;10343873;28;20687;-72
2021/11/18 18:17:41;;;;;;;7.50;6.80;;;10.90;44.20;;;;;;10360112;28;20261;-74
2021/11/18 18:22:45;;;;;;;7.43;6.73;;;10.80;43.70;;;;;;10359154;28;20605;-74
2021/11/18 18:27:50;;;;;;;7.03;6.43;;;10.80;43.70;;;;;;10358440;28;20228;-74
2021/11/18 18:32:54;;;;;;;8.33;7.53;;;10.80;43.70;;;;;;10349366;28;20226;-72
2021/11/18 18:37:58;;;;;;;9.97;9.07;;;10.70;43.50;;;;;;10344713;28;20230;-72
2021/11/18 18:43:04;;;;;;;8.43;7.60;;;10.70;43.40;;;;;;10357630;28;20785;-72
2021/11/18 18:48:08;;;;;;;9.50;8.60;;;10.60;43.20;;;;;;10345379;28;20230;-71
2021/11/18 18:53:12;;;;;;;8.27;7.50;;;10.60;43.10;;;;;;10352042;28;20230;-71
2021/11/18 18:58:17;;;;;;;11.23;10.27;;;10.50;43.80;;;;;;10342895;28;20229;-71
2021/11/18 19:03:24;;;;;;;10.00;9.07;;;10.40;42.90;;;;;;10347844;28;20236;-71
2021/11/18 19:08:27;;;;;;;9.17;8.27;;;10.30;42.70;;;;;;10345676;28;20242;-71
2021/11/18 19:13:33;;;;;;;13.40;8.80;;;10.30;42.80;;;;;;10349097;28;20218;-72
2021/11/18 19:18:40;;;;;;;7.27;6.67;;;10.20;43.20;;;;;;10348824;28;20606;-71
2021/11/18 19:23:43;;;;;;;13.13;11.37;;;10.10;42.40;;;;;;10342714;28;20222;-70
2021/11/18 19:29:00;;;;;;;11.80;9.70;;;10.00;42.60;;;;;;10353041;28;20676;-71
2021/11/18 19:34:08;;;;;;;10.57;9.47;;;9.90;43.50;;;;;;10346143;28;20218;-71
2021/11/18 19:39:11;;;;;;;11.30;9.93;;;9.80;43.30;;;;;;10345533;28;20226;-71
2021/11/18 19:44:17;;;;;;;10.87;9.87;;;9.70;43.60;;;;;;10343580;28;20718;-71
2021/11/18 19:49:22;;;;;;;8.97;8.13;;;9.60;43.30;;;;;;10345575;28;20230;-71
2021/11/18 19:54:30;;;;;;;8.83;7.93;;;9.50;43.20;;;;;;10343144;28;20236;-71
2021/11/18 19:59:33;;;;;;;9.97;9.07;;;9.50;43.40;;;;;;10344279;28;20681;-71
2021/11/18 20:04:40;;;;;;;11.97;8.50;;;9.40;43.40;;;;;;10342293;28;20238;-71
2021/11/18 20:09:44;;;;;;;8.10;7.40;;;9.30;43.10;;;;;;10349439;28;20230;-72
2021/11/18 20:14:51;;;;;;;10.63;9.53;;;9.20;43.40;;;;;;10346186;28;20229;-71
2021/11/18 20:19:59;;;;;;;10.17;9.17;;;9.10;43.40;;;;;;10347234;28;20219;-71
2021/11/18 20:25:02;;;;;;;11.50;10.40;;;9.00;43.40;;;;;;10345344;28;20221;-71
2021/11/18 20:30:09;;;;;;;11.30;10.20;;;8.80;43.50;;;;;;10343337;28;20309;-71
2021/11/18 20:35:18;;;;;;;11.43;10.43;;;8.60;43.90;;;;;;10345183;28;20619;-71
2021/11/18 20:40:24;;;;;;;11.23;10.23;;;8.50;44.30;;;;;;10348313;28;20226;-72
2021/11/18 20:45:27;;;;;;;13.13;11.93;;;8.50;44.90;;;;;;10349417;28;20702;-71
2021/11/18 20:50:36;;;;;;;12.90;11.60;;;8.50;44.90;;;;;;10346407;28;20218;-71
2021/11/18 20:55:43;;;;;;;15.97;11.63;;;8.50;44.90;;;;;;10346679;28;20244;-71
2021/11/18 21:00:48;;;;;;;11.63;10.43;;;8.40;45.00;;;;;;10345546;28;20727;-71
2021/11/18 21:05:55;;;;;;;10.80;9.80;;;8.40;45.10;;;;;;10344636;28;20226;-71
2021/11/18 21:11:01;;;;;;;11.13;9.97;;;8.40;45.00;;;;;;10341876;28;20729;-71
2021/11/18 21:16:08;;;;;;;10.40;9.40;;;8.40;45.10;;;;;;10345120;28;20740;-71
2021/11/18 21:21:15;;;;;;;11.87;10.77;;;8.40;44.90;;;;;;10347120;28;20602;-72
2021/11/18 21:26:19;;;;;;;11.03;9.93;;;8.40;44.80;;;;;;10357260;28;20226;-71
2021/11/18 21:31:25;;;;;;;9.10;8.30;;;8.30;44.80;;;;;;10351727;28;20234;-71
2021/11/18 21:36:34;;;;;;;10.17;9.17;;;8.30;45.00;;;;;;10412349;23;20255;-76
2021/11/18 21:41:37;;;;;;;9.13;8.23;;;8.30;45.00;;;;;;10491121;28;20310;-74
2021/11/18 21:46:44;;;;;;;10.90;9.90;;;8.30;44.90;;;;;;10486689;28;20463;-75
2021/11/18 21:51:50;;;;;;;11.47;10.27;;;8.30;44.80;;;;;;10484070;28;20282;-74
2021/11/18 21:56:53;;;;;;;11.20;10.13;;;8.30;44.60;;;;;;10525070;28;20228;-73
2021/11/18 22:01:57;;;;;;;10.60;9.53;;;8.30;44.60;;;;;;10529845;28;20778;-74
2021/11/18 22:07:11;;;;;;;11.57;10.40;;;8.30;44.50;;;;;;10528868;28;20703;-75
2021/11/18 22:12:15;;;;;;;10.03;9.03;;;8.30;44.40;;;;;;10528509;28;20242;-74
2021/11/18 22:17:21;;;;;;;10.53;8.10;;;8.30;44.40;;;;;;10528607;28;20319;-75
2021/11/18 22:22:28;;;;;;;11.40;10.23;;;8.30;44.30;;;;;;10464796;28;20233;-73
2021/11/18 22:27:33;;;;;;;12.40;11.20;;;8.30;44.10;;;;;;10446058;28;20292;-75
2021/11/18 22:32:36;;;;;;;10.40;9.50;;;8.20;44.20;;;;;;10444625;28;20303;-75
2021/11/18 22:37:41;;;;;;;11.03;10.03;;;8.20;44.10;;;;;;10417114;28;20229;-74
2021/11/18 22:42:44;;;;;;;11.00;10.00;;;8.20;44.00;;;;;;10436816;28;20229;-74
2021/11/18 22:47:47;;;;;;;11.27;10.07;;;8.10;44.10;;;;;;10444122;28;20233;-74
2021/11/18 22:52:52;;;;;;;10.07;9.17;;;8.00;44.10;;;;;;10443466;28;20237;-74
2021/11/18 22:57:56;;;;;;;10.53;9.43;;;8.00;44.10;;;;;;10423941;28;20585;-74
2021/11/18 23:03:01;;;;;;;10.20;9.27;;;7.90;44.20;;;;;;10402794;28;20313;-74
2021/11/18 23:08:07;;;;;;;9.73;8.90;;;7.90;44.40;;;;;;10402306;28;20233;-75
2021/11/18 23:13:11;;;;;;;10.57;9.57;;;7.80;44.40;;;;;;10402308;28;20240;-74
2021/11/18 23:18:15;;;;;;;10.00;9.10;;;7.80;44.40;;;;;;10402365;28;20240;-74
2021/11/18 23:23:20;;;;;;;11.03;9.93;;;7.80;44.30;;;;;;10401992;28;20238;-74
2021/11/18 23:28:27;;;;;;;10.73;9.63;;;7.70;44.30;;;;;;10401460;28;20226;-75
2021/11/18 23:33:31;;;;;;;8.43;7.63;;;7.60;44.40;;;;;;10401811;28;20226;-72
2021/11/18 23:38:36;;;;;;;9.70;8.83;;;7.60;44.50;;;;;;10403613;28;20235;-74
2021/11/18 23:43:39;;;;;;;11.20;10.10;;;7.60;44.50;;;;;;10406585;28;20225;-74
2021/11/18 23:48:44;;;;;;;12.10;10.90;;;7.60;44.50;;;;;;10408320;28;20235;-75
2021/11/18 23:53:51;;;;;;;9.33;8.47;;;7.60;44.40;;;;;;10408910;28;20349;-74
2021/11/18 23:58:54;;;;;;;10.30;9.40;;;7.60;44.50;;;;;;10409273;28;20238;-75
